Flight Track Log - Related Links

Times and Time Zones

All times are in EDT time to prevent confusion due to time zone crossing. See the SKW6446 flight status page for this flight to view local times or setup timezone preferences in your user account.

Time Position Orientation Groundspeed Altitude Reporting Facility
EDT Latitude Longitude Course Direction KTS MPH feet Rate Location/Type
Tue 02:45:22 PM 39.8667 -104.5667 201° Southwest 185 213 7,400  Level Denver TRACON
Tue 02:46:22 PM 39.8000 -104.5667 180° South 223 257 9,400 1,817 Climbing Denver TRACON
Tue 02:47:00 PM 39.5643 -104.9440 199° South  Level Estimated
Tue 02:47:11 PM 39.7589 -104.5797 194° South 226 260 10,700  Level Denver Center
Tue 02:48:00 PM 39.4651 -105.0338 201° Southwest  Level Estimated
Tue 02:48:13 PM 39.6719 -104.5994 190° South 292 336 11,800  Level Denver Center
Tue 02:49:00 PM 39.3658 -105.1233 199° South  Level Estimated
Tue 02:49:15 PM 39.5847 -104.6183 189° South 313 360 14,100  Level Denver Center
Tue 02:50:00 PM 39.2664 -105.2126 201° Southwest  Level Estimated
Tue 02:50:16 PM 39.4944 -104.6381 190° South 326 375 16,200  Level Denver Center
Tue 02:51:18 PM 39.3925 -104.6606 190° South 343 395 18,700 2,032 Climbing Denver Center
Tue 02:52:20 PM 39.2975 -104.6864 192° South 347 399 20,400 1,902 Climbing Denver Center
Tue 02:53:21 PM 39.2056 -104.7536 210° Southwest 353 406 22,600 2,195 Climbing Denver Center
Tue 02:54:23 PM 39.1294 -104.8081 209° Southwest 335 386 24,900 1,839 Climbing Denver Center
Tue 02:55:25 PM 39.0428 -104.8703 209° Southwest 325 374 26,400 1,220 Climbing Denver Center
Tue 02:56:26 PM 38.9642 -104.9250 208° Southwest 336 387 27,400 844 Climbing Denver Center
Tue 02:57:40 PM 38.8819 -104.9842 209° Southwest 353 406 28,300 1,015 Climbing Denver Center
Tue 02:58:42 PM 38.7714 -105.0628 209° Southwest 350 403 29,700 1,161 Climbing Denver Center
Tue 02:59:44 PM 38.6731 -105.1308 208° Southwest 366 421 30,700 732 Climbing Denver Center
Tue 03:00:45 PM 38.5825 -105.1944 209° Southwest 373 429 31,200 634 Climbing Denver Center
Tue 03:01:47 PM 38.4736 -105.2706 209° Southwest 388 447 32,000 823 Climbing Denver Center
Tue 03:02:49 PM 38.3783 -105.3383 209° Southwest 401 461 32,900 927 Climbing Denver Center
Tue 03:03:50 PM 38.2831 -105.4056 209° Southwest 407 468 33,900 1,024 Climbing Denver Center
Tue 03:04:52 PM 38.1747 -105.4811 209° Southwest 402 463 35,000 774 Climbing Denver Center
Tue 03:05:54 PM 38.0828 -105.5456 209° Southwest 395 455 35,500 488 Climbing Denver Center
Tue 03:06:55 PM 37.9744 -105.6217 209° Southwest 398 458 36,000 488 Climbing Denver Center
Tue 03:07:57 PM 37.8797 -105.6861 208° Southwest 403 464 36,500 532 Climbing Denver Center
Tue 03:08:59 PM 37.7689 -105.7639 209° Southwest 407 468 37,100 488 Climbing Denver Center
Tue 03:10:00 PM 37.6881 -105.8178 208° Southwest 411 473 37,500 439 Climbing Denver Center
Tue 03:11:02 PM 37.5586 -105.9067 209° Southwest 414 476 38,000 242 Climbing Denver Center
Tue 03:12:04 PM 37.4547 -105.9772 208° Southwest 427 491 38,000  Level Denver Center
Tue 03:13:05 PM 37.3544 -106.0469 209° Southwest 428 493 38,000  Level Denver Center
Tue 03:14:07 PM 37.2367 -106.1261 208° Southwest 429 494 38,000  Level Denver Center
Tue 03:15:09 PM 37.1367 -106.1950 209° Southwest 427 491 38,000  Level Denver Center
Tue 03:16:10 PM 37.0372 -106.2617 208° Southwest 424 488 38,000  Level Denver Center
Tue 03:17:12 PM 36.9211 -106.3386 208° Southwest 422 486 38,000  Level Denver Center
Tue 03:18:14 PM 36.8236 -106.4058 209° Southwest 419 482 38,000  Level Denver Center
Tue 03:19:15 PM 36.7144 -106.4761 207° Southwest 422 486 38,000  Level Denver Center
Tue 03:20:16 PM 36.6067 -106.5494 209° Southwest 422 486 38,000  Level Albuquerque Center
Tue 03:21:19 PM 36.4919 -106.6258 208° Southwest 421 484 38,000  Level Denver Center
Tue 03:22:20 PM 36.3925 -106.6908 208° Southwest 419 482 38,000  Level Denver Center
Tue 03:23:21 PM 36.2917 -106.7586 208° Southwest 424 488 38,000  Level Albuquerque Center
Tue 03:24:23 PM 36.1742 -106.8361 208° Southwest 428 493 38,000  Level Albuquerque Center
Tue 03:25:25 PM 36.0656 -106.9069 208° Southwest 438 504 38,000  Level Albuquerque Center
Tue 03:26:27 PM 35.9575 -106.9775 208° Southwest 440 506 38,000  Level Albuquerque Center
Tue 03:27:28 PM 35.8414 -107.0531 208° Southwest 447 514 38,000  Level Albuquerque Center
Tue 03:28:30 PM 35.7178 -107.1333 208° Southwest 447 514 38,000  Level Albuquerque Center
Tue 03:29:32 PM 35.6111 -107.2022 208° Southwest 449 517 38,000  Level Albuquerque Center
Tue 03:30:33 PM 35.5036 -107.2714 208° Southwest 452 520 38,000  Level Albuquerque Center
Tue 03:31:35 PM 35.3772 -107.3525 208° Southwest 455 524 38,000  Level Albuquerque Center
Tue 03:32:36 PM 35.2678 -107.4233 208° Southwest 461 531 38,000  Level Albuquerque Center
Tue 03:33:38 PM 35.1558 -107.4950 208° Southwest 460 529 38,000  Level Albuquerque Center
Tue 03:34:40 PM 35.0425 -107.5675 208° Southwest 461 531 38,000  Level Albuquerque Center
Tue 03:35:41 PM 34.9292 -107.6386 207° Southwest 461 531 38,000  Level Albuquerque Center
Tue 03:36:43 PM 34.7933 -107.7258 208° Southwest 461 531 38,000  Level Albuquerque Center
Tue 03:37:45 PM 34.6811 -107.7969 208° Southwest 458 527 38,000  Level Albuquerque Center
Tue 03:38:46 PM 34.5675 -107.8672 207° Southwest 458 527 38,000  Level Albuquerque Center
Tue 03:39:48 PM 34.4547 -107.9383 207° Southwest 458 527 38,000  Level Albuquerque Center
Tue 03:40:50 PM 34.3411 -108.0094 207° Southwest 459 528 38,000  Level Albuquerque Center
Tue 03:41:51 PM 34.2292 -108.0756 206° Southwest 459 528 38,000  Level Albuquerque Center
Tue 03:42:53 PM 34.0936 -108.1592 207° Southwest 458 527 38,000  Level Albuquerque Center
Tue 03:43:54 PM 33.9817 -108.2294 208° Southwest 456 525 38,000  Level Albuquerque Center
Tue 03:44:56 PM 33.8683 -108.2986 207° Southwest 458 527 38,000 -48 Level Albuquerque Center
Tue 03:45:58 PM 33.7542 -108.3667 206° Southwest 461 531 37,900 -585 Descending Albuquerque Center
Tue 03:46:59 PM 33.6428 -108.4361 207° Southwest 457 526 36,800 -1,073 Descending Albuquerque Center
Tue 03:48:01 PM 33.5361 -108.5003 207° Southwest 441 507 35,700 -1,161 Descending Albuquerque Center
Tue 03:49:03 PM 33.4125 -108.5761 207° Southwest 422 486 34,400 -823 Descending Albuquerque Center
Tue 03:50:05 PM 33.3061 -108.6419 207° Southwest 428 493 34,000 -195 Descending Albuquerque Center
Tue 03:51:06 PM 33.1933 -108.7092 207° Southwest 444 511 34,000 -683 Level Albuquerque Center
Tue 03:52:08 PM 33.0753 -108.7808 207° Southwest 457 526 32,600 -1,355 Descending Albuquerque Center
Tue 03:53:10 PM 32.9661 -108.8475 207° Southwest 449 517 31,200 -1,366 Descending Albuquerque Center
Tue 03:54:11 PM 32.8517 -108.9142 206° Southwest 452 520 29,800 -1,366 Descending Albuquerque Center
Tue 03:55:13 PM 32.7436 -108.9800 207° Southwest 449 517 28,400 -1,065 Descending Albuquerque Center
Tue 03:56:15 PM 32.6308 -109.0475 207° Southwest 445 512 27,600 -976 Descending Albuquerque Center
Tue 03:57:16 PM 32.5075 -109.1200 206° Southwest 420 483 26,400 -1,073 Descending Albuquerque Center
Tue 03:58:18 PM 32.4089 -109.1781 206° Southwest 404 465 25,400 -968 Descending Albuquerque Center
Tue 03:59:20 PM 32.3106 -109.2361 207° Southwest 399 459 24,400 -683 Descending Albuquerque Center
Tue 04:00:21 PM 32.2600 -109.3436 241° Southwest 394 453 24,000 -537 Descending Albuquerque Center
Tue 04:01:23 PM 32.2472 -109.4753 263° West 400 460 23,300 -677 Descending Albuquerque Center
Tue 04:02:25 PM 32.2336 -109.6094 263° West 407 468 22,600 -1,548 Descending Albuquerque Center
Tue 04:03:27 PM 32.2175 -109.7719 263° West 412 474 20,100 -1,951 Descending Albuquerque Center
Tue 04:04:28 PM 32.2036 -109.9086 263° West 417 480 18,600 -1,512 Descending Albuquerque Center
Tue 04:05:30 PM 32.1908 -110.0389 263° West 412 474 17,000 -1,500 Descending Albuquerque Center
Tue 04:06:32 PM 32.1783 -110.1653 263° West 399 459 15,500 -1,463 Descending Albuquerque Center
Tue 04:07:33 PM 32.1625 -110.2836 261° West 336 387 14,000 -1,770 Descending Albuquerque Center
Tue 04:08:34 PM 32.1422 -110.3850 257° West 316 364 11,900 -1,935 Descending Albuquerque Center
Tue 04:09:37 PM 32.1217 -110.4903 257° West 315 362 10,000 -912 Descending Albuquerque Center
Tue 04:10:39 PM 32.1019 -110.5722 254° West 284 327 10,000 -916 Level Albuquerque Center
Tue 04:11:48 PM 32.0750 -110.6506 248° West 221 254 8,000 -1,721 Descending Albuquerque Center
Tue 04:12:48 PM 32.0558 -110.7161 251° West 210 242 6,300 -1,409 Descending Albuquerque Center
Tue 04:13:43 PM 32.0506 -110.7756 264° West 200 230 5,300 -1,091 Descending Albuquerque Center

Login

Don't have an account? Register now (free) for customized features, flight alerts, and more!